createdAt,value
2022-08-25T00:00:21.789Z,29.26
2022-08-25T00:01:27.203Z,29.26
2022-08-25T00:02:31.361Z,29.26
2022-08-25T00:03:35.860Z,29.28
2022-08-25T00:04:39.299Z,29.28
2022-08-25T00:05:42.899Z,29.28
2022-08-25T00:06:46.509Z,29.29
2022-08-25T00:07:49.506Z,29.28
2022-08-25T00:08:52.732Z,29.28
2022-08-25T00:09:56.009Z,29.29
2022-08-25T00:11:03.162Z,29.30
2022-08-25T00:12:03.904Z,29.31
2022-08-25T00:13:06.154Z,29.32
2022-08-25T00:15:22.885Z,29.44
2022-08-25T00:16:26.317Z,29.34
2022-08-25T00:17:28.445Z,29.33
2022-08-25T00:18:30.615Z,29.30
2022-08-25T00:19:34.030Z,29.29
2022-08-25T00:20:37.679Z,29.29
2022-08-25T00:21:44.610Z,29.29
2022-08-25T00:22:46.912Z,29.29
2022-08-25T00:24:09.168Z,29.30
2022-08-25T00:25:11.663Z,29.29
2022-08-25T00:26:15.302Z,29.26
2022-08-25T00:27:17.457Z,29.25
2022-08-25T00:28:20.034Z,29.24
2022-08-25T00:29:22.598Z,29.23
2022-08-25T00:30:26.844Z,29.18
2022-08-25T00:31:37.654Z,29.16
2022-08-25T00:32:33.602Z,29.15
2022-08-25T00:33:36.404Z,29.10
2022-08-25T00:34:38.821Z,29.09
2022-08-25T00:35:41.428Z,29.10
2022-08-25T00:36:44.821Z,29.09
2022-08-25T00:37:47.083Z,29.09
2022-08-25T00:38:49.320Z,29.07
2022-08-25T00:39:51.598Z,29.06
2022-08-25T00:40:55.222Z,29.06
2022-08-25T00:41:57.909Z,29.05
2022-08-25T00:43:00.170Z,28.98
2022-08-25T00:44:04.455Z,28.98
2022-08-25T00:45:07.749Z,29.01
2022-08-25T00:46:11.407Z,28.99
2022-08-25T00:47:13.820Z,28.97
2022-08-25T00:48:18.079Z,28.95
2022-08-25T00:49:27.210Z,28.94
2022-08-25T00:50:30.880Z,28.91
2022-08-25T00:51:38.676Z,28.88
2022-08-25T00:52:46.439Z,28.88
2022-08-25T00:53:48.725Z,28.86
2022-08-25T00:54:56.307Z,28.85
2022-08-25T00:55:58.599Z,28.85
2022-08-25T00:57:00.942Z,28.86
2022-08-25T00:58:06.850Z,28.86
2022-08-25T00:59:09.042Z,28.88
2022-08-25T01:00:16.884Z,28.87
2022-08-25T01:01:19.277Z,28.87
2022-08-25T01:02:22.044Z,28.85
2022-08-25T01:03:31.546Z,28.84
2022-08-25T01:04:31.807Z,28.80
2022-08-25T01:05:35.424Z,28.77
2022-08-25T01:06:40.323Z,28.76
2022-08-25T01:07:43.621Z,28.75
2022-08-25T01:08:46.884Z,28.72
2022-08-25T01:09:50.067Z,28.70
2022-08-25T01:10:52.899Z,28.70
2022-08-25T01:11:55.496Z,28.68
2022-08-25T01:13:01.056Z,28.66
2022-08-25T01:14:03.552Z,28.66
2022-08-25T01:15:06.969Z,28.73
2022-08-25T01:16:09.906Z,28.75
2022-08-25T01:17:13.084Z,28.73
2022-08-25T01:18:15.381Z,28.69
2022-08-25T01:19:17.542Z,28.72
2022-08-25T01:20:22.562Z,28.73
2022-08-25T01:21:28.061Z,28.75
2022-08-25T01:22:30.253Z,28.77
2022-08-25T01:23:32.496Z,28.81
2022-08-25T01:26:07.219Z,28.86
2022-08-25T01:27:09.430Z,28.72
2022-08-25T01:28:12.422Z,28.70
2022-08-25T01:29:15.207Z,28.69
2022-08-25T01:30:19.887Z,28.69
2022-08-25T01:31:23.674Z,28.67
2022-08-25T01:32:26.329Z,28.67
2022-08-25T01:33:28.490Z,28.67
2022-08-25T01:34:31.813Z,28.68
2022-08-25T01:35:34.120Z,28.70
2022-08-25T01:36:36.772Z,28.71
2022-08-25T01:37:38.895Z,28.71
2022-08-25T01:38:41.154Z,28.72
2022-08-25T01:39:44.198Z,28.70
2022-08-25T01:40:46.931Z,28.69
2022-08-25T01:42:04.854Z,28.67
2022-08-25T01:43:13.518Z,28.67
2022-08-25T01:44:17.463Z,28.68
2022-08-25T01:45:21.358Z,28.69
2022-08-25T01:46:24.489Z,28.67
2022-08-25T01:47:26.891Z,28.65
2022-08-25T01:48:29.249Z,28.62
2022-08-25T01:49:32.412Z,28.60
2022-08-25T01:50:35.132Z,28.57
2022-08-25T01:51:46.053Z,28.57
2022-08-25T01:53:10.196Z,28.56
2022-08-25T01:54:12.482Z,28.57
2022-08-25T01:55:15.367Z,28.60
2022-08-25T01:56:18.453Z,28.63
2022-08-25T01:57:21.033Z,28.65
2022-08-25T01:59:38.446Z,28.76
2022-08-25T02:00:45.159Z,28.63
2022-08-25T02:01:47.720Z,28.63
2022-08-25T02:02:52.293Z,28.64
2022-08-25T02:03:54.833Z,28.65
2022-08-25T02:04:57.030Z,28.61
2022-08-25T02:06:00.174Z,28.61
2022-08-25T02:07:03.816Z,28.61
2022-08-25T02:08:06.963Z,28.64
2022-08-25T02:09:12.668Z,28.66
2022-08-25T02:10:15.747Z,28.64
2022-08-25T02:11:18.906Z,28.63
2022-08-25T02:12:21.208Z,28.63
2022-08-25T02:13:27.021Z,28.60
2022-08-25T02:14:27.537Z,28.60
2022-08-25T02:15:29.997Z,28.62
2022-08-25T02:16:35.026Z,28.61
2022-08-25T02:17:38.128Z,28.60
2022-08-25T02:18:40.424Z,28.59
2022-08-25T02:19:42.567Z,28.58
2022-08-25T02:20:45.414Z,28.61
2022-08-25T02:21:48.907Z,28.63
2022-08-25T02:22:56.652Z,28.63
2022-08-25T02:23:55.493Z,28.60
2022-08-25T02:24:57.728Z,28.56
2022-08-25T02:25:59.971Z,28.52
2022-08-25T02:27:02.501Z,28.48
2022-08-25T02:28:05.599Z,28.49
2022-08-25T02:29:08.216Z,28.48
2022-08-25T02:30:12.554Z,28.49
2022-08-25T02:31:15.076Z,28.51
2022-08-25T02:32:17.383Z,28.52
2022-08-25T02:33:19.706Z,28.52
2022-08-25T02:34:21.958Z,28.52
2022-08-25T02:35:24.076Z,28.53
2022-08-25T02:36:26.938Z,28.55
2022-08-25T02:37:29.091Z,28.53
2022-08-25T02:38:32.475Z,28.50
2022-08-25T02:39:34.749Z,28.47
2022-08-25T02:40:37.205Z,28.47
2022-08-25T02:41:39.542Z,28.47
2022-08-25T02:42:42.779Z,28.49
2022-08-25T02:43:45.918Z,28.48
2022-08-25T02:44:48.111Z,28.47
2022-08-25T02:45:51.072Z,28.47
2022-08-25T02:46:53.894Z,28.46
2022-08-25T02:47:56.131Z,28.47
2022-08-25T02:48:58.402Z,28.47
2022-08-25T02:50:00.652Z,28.49
2022-08-25T02:51:03.391Z,28.50
2022-08-25T02:52:05.708Z,28.51
2022-08-25T02:53:07.867Z,28.53
2022-08-25T02:54:10.432Z,28.55
2022-08-25T02:55:13.196Z,28.55
2022-08-25T02:56:17.223Z,28.55
2022-08-25T02:57:20.058Z,28.55
2022-08-25T02:58:22.443Z,28.52
2022-08-25T02:59:25.116Z,28.52
2022-08-25T03:00:27.921Z,28.54
2022-08-25T03:01:31.288Z,28.52
2022-08-25T03:02:33.715Z,28.49
2022-08-25T03:03:39.309Z,28.49
2022-08-25T03:04:40.378Z,28.50
2022-08-25T03:05:43.619Z,28.51
2022-08-25T03:06:46.140Z,28.52
2022-08-25T03:07:48.276Z,28.50
2022-08-25T03:08:51.521Z,28.49
2022-08-25T03:09:53.823Z,28.47
2022-08-25T03:10:56.179Z,28.46
2022-08-25T03:11:58.418Z,28.44
2022-08-25T03:13:00.682Z,28.45
2022-08-25T03:14:05.263Z,28.46
2022-08-25T03:15:13.269Z,28.44
2022-08-25T03:16:16.383Z,28.42
2022-08-25T03:17:19.285Z,28.40
2022-08-25T03:18:21.433Z,28.34
2022-08-25T03:19:25.611Z,28.34
2022-08-25T03:20:29.637Z,28.33
2022-08-25T03:21:32.426Z,28.30
2022-08-25T03:22:35.460Z,28.26
2022-08-25T03:23:38.674Z,28.23
2022-08-25T03:24:42.237Z,28.20
2022-08-25T03:25:44.429Z,28.14
2022-08-25T03:26:46.664Z,28.09
2022-08-25T03:27:48.915Z,28.07
2022-08-25T03:28:51.804Z,28.05
2022-08-25T03:29:53.951Z,28.03
2022-08-25T03:30:56.928Z,28.03
2022-08-25T03:32:00.605Z,28.03
2022-08-25T03:33:03.152Z,28.01
2022-08-25T03:34:05.294Z,28.01
2022-08-25T03:35:09.205Z,28.01
2022-08-25T03:36:11.506Z,28.00
2022-08-25T03:37:13.738Z,27.94
2022-08-25T03:38:15.997Z,27.85
2022-08-25T03:39:19.201Z,27.80
2022-08-25T03:40:24.015Z,27.72
2022-08-25T03:41:29.098Z,27.66
2022-08-25T03:42:31.864Z,27.61
2022-08-25T03:43:34.106Z,27.55
2022-08-25T03:44:36.375Z,27.52
2022-08-25T03:45:43.333Z,27.49
2022-08-25T03:46:47.378Z,27.45
2022-08-25T03:47:49.855Z,27.43
2022-08-25T03:48:52.483Z,27.35
2022-08-25T03:49:54.650Z,27.31
2022-08-25T03:50:57.399Z,27.32
2022-08-25T03:52:00.053Z,27.33
2022-08-25T03:53:03.157Z,27.38
2022-08-25T03:54:05.793Z,27.42
2022-08-25T03:55:09.873Z,27.46
2022-08-25T03:56:12.350Z,27.48
2022-08-25T03:57:14.614Z,27.49
2022-08-25T03:58:17.321Z,27.47
2022-08-25T03:59:20.298Z,27.45
2022-08-25T04:00:23.002Z,27.38
2022-08-25T04:01:25.278Z,27.34
2022-08-25T04:02:28.322Z,27.29
2022-08-25T04:03:30.629Z,27.29
2022-08-25T04:04:32.863Z,27.30
2022-08-25T04:05:35.779Z,27.31
2022-08-25T04:06:38.973Z,27.31
2022-08-25T04:07:41.156Z,27.30
2022-08-25T04:08:43.402Z,27.31
2022-08-25T04:09:45.551Z,27.29
2022-08-25T04:10:48.024Z,27.29
2022-08-25T04:11:53.413Z,27.29
2022-08-25T04:12:55.842Z,27.27
2022-08-25T04:13:58.882Z,27.28
2022-08-25T04:15:02.180Z,27.28
2022-08-25T04:17:21.810Z,27.41
2022-08-25T04:18:23.936Z,27.31
2022-08-25T04:19:26.072Z,27.30
2022-08-25T04:20:29.051Z,27.29
2022-08-25T04:21:31.593Z,27.28
2022-08-25T04:22:34.817Z,27.28
2022-08-25T04:23:39.893Z,27.27
2022-08-25T04:24:44.066Z,27.27
2022-08-25T04:25:46.371Z,27.27
2022-08-25T04:26:49.615Z,27.29
2022-08-25T04:27:51.790Z,27.29
2022-08-25T04:28:55.550Z,27.32
2022-08-25T04:29:57.853Z,27.32
2022-08-25T04:31:00.291Z,27.32
2022-08-25T04:32:03.329Z,27.31
2022-08-25T04:33:05.681Z,27.32
2022-08-25T04:34:14.312Z,27.30
2022-08-25T04:35:12.210Z,27.30
2022-08-25T04:36:17.474Z,27.30
2022-08-25T04:37:19.643Z,27.28
2022-08-25T04:38:22.841Z,27.26
2022-08-25T04:39:25.145Z,27.27
2022-08-25T04:40:29.229Z,27.28
2022-08-25T04:41:32.706Z,27.29
2022-08-25T04:42:34.983Z,27.31
2022-08-25T04:43:39.057Z,27.32
2022-08-25T04:44:41.756Z,27.32
2022-08-25T04:45:43.980Z,27.35
2022-08-25T04:46:46.692Z,27.35
2022-08-25T04:48:03.027Z,27.38
2022-08-25T04:48:55.140Z,27.41
2022-08-25T04:49:57.559Z,27.43
2022-08-25T04:52:18.329Z,27.56
2022-08-25T04:53:21.587Z,27.47
2022-08-25T04:54:24.302Z,27.40
2022-08-25T04:55:27.467Z,27.32
2022-08-25T04:56:30.183Z,27.30
2022-08-25T04:57:33.412Z,27.30
2022-08-25T04:58:35.829Z,27.28
2022-08-25T04:59:38.396Z,27.30
2022-08-25T05:00:41.056Z,27.32
2022-08-25T05:01:43.797Z,27.34
2022-08-25T05:02:46.199Z,27.38
2022-08-25T05:03:56.092Z,27.39
2022-08-25T05:04:58.444Z,27.43
2022-08-25T05:06:01.289Z,27.48
2022-08-25T05:07:03.907Z,27.50
2022-08-25T05:08:08.003Z,27.53
2022-08-25T05:09:10.182Z,27.54
2022-08-25T05:10:13.556Z,27.59
2022-08-25T05:11:15.949Z,27.59
2022-08-25T05:12:18.163Z,27.61
2022-08-25T05:13:21.410Z,27.61
2022-08-25T05:14:26.487Z,27.63
2022-08-25T05:15:28.800Z,27.64
2022-08-25T05:16:33.516Z,27.66
2022-08-25T05:17:35.694Z,27.69
2022-08-25T05:18:38.644Z,27.73
2022-08-25T05:19:41.559Z,27.79
2022-08-25T05:20:43.850Z,27.83
2022-08-25T05:21:46.185Z,27.85
2022-08-25T05:22:48.630Z,27.86
2022-08-25T05:23:56.188Z,27.91
2022-08-25T05:24:58.599Z,27.96
2022-08-25T05:26:05.506Z,27.97
2022-08-25T05:27:07.983Z,27.98
2022-08-25T05:28:10.237Z,28.02
2022-08-25T05:29:12.391Z,28.05
2022-08-25T05:30:15.972Z,28.05
2022-08-25T05:31:18.804Z,28.06
2022-08-25T05:32:22.177Z,28.04
2022-08-25T05:33:24.629Z,28.04
2022-08-25T05:34:27.432Z,28.04
2022-08-25T05:35:30.089Z,28.03
2022-08-25T05:36:34.221Z,28.03
2022-08-25T05:37:36.554Z,28.04
2022-08-25T05:38:38.903Z,28.04
2022-08-25T05:39:41.440Z,28.03
2022-08-25T05:40:44.529Z,28.03
2022-08-25T05:41:46.860Z,28.03
2022-08-25T05:42:49.984Z,28.06
2022-08-25T05:43:52.923Z,28.10
2022-08-25T05:44:56.265Z,28.12
2022-08-25T05:45:58.668Z,28.14
2022-08-25T05:47:02.243Z,28.15
2022-08-25T05:48:05.218Z,28.15
2022-08-25T05:49:08.338Z,28.14
2022-08-25T05:50:11.942Z,28.14
2022-08-25T05:51:17.156Z,28.15
2022-08-25T05:52:20.256Z,28.17
2022-08-25T05:53:24.087Z,28.20
2022-08-25T05:54:26.489Z,28.22
2022-08-25T05:55:28.672Z,28.21
2022-08-25T05:56:31.589Z,28.22
2022-08-25T05:57:35.593Z,28.24
2022-08-25T05:58:38.988Z,28.27
2022-08-25T05:59:41.311Z,28.27
2022-08-25T06:00:44.214Z,28.27
2022-08-25T06:01:46.621Z,28.29
2022-08-25T06:02:48.972Z,28.29
2022-08-25T06:03:51.767Z,28.31
2022-08-25T06:04:55.264Z,28.32
2022-08-25T06:06:06.035Z,28.32
2022-08-25T06:07:08.732Z,28.32
2022-08-25T06:08:12.099Z,28.32
2022-08-25T06:09:14.365Z,28.31
2022-08-25T06:10:17.120Z,28.30
2022-08-25T06:11:19.369Z,28.30
2022-08-25T06:12:22.262Z,28.30
2022-08-25T06:13:28.659Z,28.30
2022-08-25T06:14:28.526Z,28.30
2022-08-25T06:15:30.981Z,28.28
2022-08-25T06:16:34.714Z,28.30
2022-08-25T06:18:50.529Z,28.40
2022-08-25T06:19:53.743Z,28.29
2022-08-25T06:20:56.137Z,28.30
2022-08-25T06:21:58.491Z,28.25
2022-08-25T06:23:01.520Z,28.25
2022-08-25T06:24:04.857Z,28.27
2022-08-25T06:25:08.510Z,28.27
2022-08-25T06:26:18.130Z,28.30
2022-08-25T06:27:16.996Z,28.30
2022-08-25T06:28:19.339Z,28.31
2022-08-25T06:29:21.570Z,28.32
2022-08-25T06:30:28.552Z,28.32
2022-08-25T06:31:31.272Z,28.33
2022-08-25T06:32:34.504Z,28.32
2022-08-25T06:33:38.608Z,28.32
2022-08-25T06:34:41.340Z,28.33
2022-08-25T06:35:43.469Z,28.32
2022-08-25T06:36:48.917Z,28.34
2022-08-25T06:37:51.177Z,28.35
2022-08-25T06:38:54.487Z,28.38
2022-08-25T06:39:56.929Z,28.40
2022-08-25T06:41:02.387Z,28.42
2022-08-25T06:42:05.235Z,28.44
2022-08-25T06:43:07.516Z,28.43
2022-08-25T06:44:12.330Z,28.40
2022-08-25T06:45:15.590Z,28.40
2022-08-25T06:46:34.684Z,28.42
2022-08-25T06:47:28.198Z,28.43
2022-08-25T06:48:30.709Z,28.42
2022-08-25T06:49:36.206Z,28.42
2022-08-25T06:50:39.809Z,28.45
2022-08-25T06:51:42.218Z,28.47
2022-08-25T06:52:44.509Z,28.50
2022-08-25T06:53:47.964Z,28.53
2022-08-25T06:54:50.987Z,28.56
2022-08-25T06:55:57.239Z,28.58
2022-08-25T06:56:59.828Z,28.60
2022-08-25T06:58:02.499Z,28.63
2022-08-25T06:59:06.805Z,28.64
2022-08-25T07:00:10.619Z,28.63
2022-08-25T07:01:20.107Z,28.65
2022-08-25T07:02:22.268Z,28.66
2022-08-25T07:03:25.440Z,28.67
2022-08-25T07:04:28.701Z,28.68
2022-08-25T07:05:43.522Z,28.70
2022-08-25T07:06:36.457Z,28.71
2022-08-25T07:07:43.625Z,28.71
2022-08-25T07:08:44.073Z,28.71
2022-08-25T07:09:46.397Z,28.72
2022-08-25T07:10:48.956Z,28.70
2022-08-25T07:11:51.206Z,28.69
2022-08-25T07:12:53.492Z,28.70
2022-08-25T07:13:56.335Z,28.71
2022-08-25T07:15:17.221Z,28.71
2022-08-25T07:16:07.002Z,28.71
2022-08-25T07:17:12.579Z,28.73
2022-08-25T07:18:14.622Z,28.74
2022-08-25T07:19:17.888Z,28.75
2022-08-25T07:21:28.952Z,28.77
2022-08-25T07:22:29.964Z,28.78
2022-08-25T07:23:32.218Z,28.79
2022-08-25T07:24:34.607Z,28.80
2022-08-25T07:25:36.862Z,28.82
2022-08-25T07:26:40.216Z,28.82
2022-08-25T07:27:43.201Z,28.83
2022-08-25T07:28:47.442Z,28.82
2022-08-25T07:29:49.849Z,28.82
2022-08-25T07:30:52.999Z,28.82
2022-08-25T07:31:55.586Z,28.82
2022-08-25T07:32:58.302Z,28.82
2022-08-25T07:34:16.398Z,28.83
2022-08-25T07:35:20.165Z,28.84
2022-08-25T07:36:24.726Z,28.85
2022-08-25T07:38:31.023Z,28.86
2022-08-25T07:39:33.728Z,28.86
2022-08-25T07:40:36.994Z,28.86
2022-08-25T07:41:40.339Z,28.88
2022-08-25T07:42:44.380Z,28.88
2022-08-25T07:43:46.691Z,28.89
2022-08-25T07:44:49.033Z,28.88
2022-08-25T07:45:51.733Z,28.89
2022-08-25T07:46:54.289Z,28.90
2022-08-25T07:49:16.879Z,29.01
2022-08-25T07:50:16.843Z,28.91
2022-08-25T07:51:19.277Z,28.91
2022-08-25T07:52:21.661Z,28.92
2022-08-25T07:53:23.905Z,28.90
2022-08-25T07:54:33.732Z,28.89
2022-08-25T07:55:31.352Z,28.88
2022-08-25T07:56:35.458Z,28.89
2022-08-25T07:57:41.086Z,28.86
2022-08-25T07:58:43.469Z,28.85
2022-08-25T07:59:47.959Z,28.87
2022-08-25T08:00:50.786Z,28.87
2022-08-25T08:01:53.192Z,28.89
2022-08-25T08:02:56.580Z,28.90
2022-08-25T08:04:02.994Z,28.92
2022-08-25T08:05:03.633Z,28.90
2022-08-25T08:06:09.936Z,28.90
2022-08-25T08:07:12.941Z,28.95
2022-08-25T08:08:15.712Z,28.97
2022-08-25T08:09:18.610Z,28.97
2022-08-25T08:10:53.549Z,28.98
2022-08-25T08:11:29.401Z,28.99
2022-08-25T08:12:33.506Z,28.98
2022-08-25T08:13:40.804Z,28.99
2022-08-25T08:14:45.067Z,29.00
2022-08-25T08:15:45.498Z,29.00
2022-08-25T08:16:47.953Z,29.00
2022-08-25T08:17:50.597Z,29.02
2022-08-25T08:18:52.939Z,29.01
2022-08-25T08:19:55.490Z,29.02
2022-08-25T08:20:58.409Z,29.03
2022-08-25T08:22:02.313Z,29.03
2022-08-25T08:23:05.532Z,29.03
2022-08-25T08:24:19.532Z,29.04
2022-08-25T08:25:18.757Z,29.06
2022-08-25T08:26:18.412Z,29.05
2022-08-25T08:27:22.757Z,29.06
2022-08-25T08:28:25.304Z,28.59
2022-08-25T08:29:28.412Z,29.07
2022-08-25T08:30:31.261Z,29.07
2022-08-25T08:31:33.969Z,29.07
2022-08-25T08:32:59.876Z,29.08
2022-08-25T08:33:43.180Z,29.08
2022-08-25T08:34:45.693Z,29.08
2022-08-25T08:35:47.850Z,29.09
2022-08-25T08:36:50.300Z,29.10
2022-08-25T08:37:53.939Z,29.09
2022-08-25T08:38:57.448Z,29.09
2022-08-25T08:40:00.138Z,29.09
2022-08-25T08:41:26.713Z,29.10
2022-08-25T08:42:45.415Z,29.10
2022-08-25T08:43:52.867Z,29.09
2022-08-25T08:45:04.932Z,29.09
2022-08-25T08:46:09.363Z,29.07
2022-08-25T08:47:36.573Z,29.06
2022-08-25T08:49:01.125Z,29.06
2022-08-25T08:50:07.231Z,29.06
2022-08-25T08:51:20.268Z,29.05
2022-08-25T08:52:37.544Z,29.03
2022-08-25T08:53:47.809Z,29.03
2022-08-25T08:54:53.916Z,29.05
2022-08-25T08:56:01.763Z,29.03
2022-08-25T08:57:13.856Z,29.04
2022-08-25T08:59:40.367Z,29.14
2022-08-25T09:00:52.279Z,29.03
2022-08-25T09:01:56.683Z,29.01
2022-08-25T09:03:06.321Z,29.01
2022-08-25T09:04:12.160Z,29.01
2022-08-25T09:05:15.293Z,28.98
2022-08-25T09:07:35.895Z,29.00
2022-08-25T09:08:38.702Z,28.85
2022-08-25T09:09:42.895Z,28.83
2022-08-25T09:11:03.231Z,28.80
2022-08-25T09:12:12.141Z,28.78
2022-08-25T09:13:36.731Z,28.76
2022-08-25T09:15:01.189Z,28.75
2022-08-25T09:16:34.383Z,28.72
2022-08-25T09:18:04.330Z,28.69
2022-08-25T09:20:55.371Z,28.76
2022-08-25T09:22:35.398Z,28.63
2022-08-25T09:23:42.989Z,28.60
2022-08-25T09:25:08.300Z,28.60
2022-08-25T09:26:28.488Z,28.59
2022-08-25T09:27:34.686Z,28.57
2022-08-25T09:28:40.990Z,28.56
2022-08-25T09:29:53.247Z,28.56
2022-08-25T09:31:04.614Z,28.54
2022-08-25T09:32:07.906Z,28.55
2022-08-25T09:33:10.507Z,28.55
2022-08-25T09:34:19.730Z,28.54
2022-08-25T09:35:24.981Z,28.56
2022-08-25T09:36:28.175Z,28.57
2022-08-25T09:37:31.356Z,28.57
2022-08-25T09:38:34.702Z,28.58
2022-08-25T09:39:36.863Z,28.60
2022-08-25T09:41:57.199Z,28.73
2022-08-25T09:43:02.441Z,28.63
2022-08-25T09:44:05.584Z,28.65
2022-08-25T09:45:11.721Z,28.65
2022-08-25T09:46:18.656Z,28.66
2022-08-25T09:47:25.915Z,28.68
2022-08-25T09:48:30.826Z,28.68
2022-08-25T09:49:42.269Z,28.70
2022-08-25T09:50:46.633Z,28.72
2022-08-25T09:51:49.202Z,28.73
2022-08-25T09:52:53.513Z,28.73
2022-08-25T09:53:59.292Z,28.73
2022-08-25T09:56:28.522Z,28.85
2022-08-25T09:59:34.131Z,28.87
2022-08-25T10:01:58.548Z,28.78
2022-08-25T10:03:16.260Z,28.80
2022-08-25T10:04:36.213Z,28.80
2022-08-25T10:06:01.082Z,28.78
2022-08-25T10:07:08.680Z,28.78
2022-08-25T10:08:14.722Z,28.78
2022-08-25T10:09:32.998Z,28.78
2022-08-25T10:10:41.993Z,28.78
2022-08-25T10:11:45.135Z,28.78
2022-08-25T10:12:51.284Z,28.78
2022-08-25T10:17:56.273Z,28.80
2022-08-25T10:19:27.298Z,28.80
2022-08-25T10:20:33.095Z,28.80
2022-08-25T10:21:36.498Z,28.81
2022-08-25T10:22:40.701Z,28.81
2022-08-25T10:23:50.493Z,28.82
2022-08-25T10:24:52.781Z,28.82
2022-08-25T10:25:57.628Z,28.81
2022-08-25T10:27:29.769Z,28.82
2022-08-25T10:30:08.009Z,28.96
2022-08-25T10:31:26.938Z,28.85
2022-08-25T10:33:08.349Z,28.86
2022-08-25T10:35:59.227Z,28.98
2022-08-25T10:37:17.899Z,28.87
2022-08-25T10:38:34.796Z,28.86
2022-08-25T10:39:45.632Z,28.86
2022-08-25T10:41:00.097Z,28.86
2022-08-25T10:42:18.364Z,28.86
2022-08-25T10:43:43.125Z,28.87
2022-08-25T10:46:09.412Z,29.00
2022-08-25T10:49:10.427Z,29.02
2022-08-25T10:50:27.698Z,28.91
2022-08-25T10:51:52.143Z,28.91
2022-08-25T10:53:05.559Z,28.91
2022-08-25T10:54:29.592Z,28.93
2022-08-25T10:55:47.762Z,28.94
2022-08-25T10:56:59.649Z,28.95
2022-08-25T10:58:13.420Z,28.94
2022-08-25T10:59:53.152Z,28.95
2022-08-25T11:01:11.653Z,28.95
2022-08-25T11:02:21.418Z,28.94
2022-08-25T11:03:30.180Z,28.94
2022-08-25T11:06:04.901Z,29.04
2022-08-25T11:07:10.671Z,28.92
2022-08-25T11:08:28.664Z,28.94
2022-08-25T11:09:36.407Z,28.94
2022-08-25T11:12:12.329Z,29.08
2022-08-25T11:14:45.495Z,29.09
2022-08-25T11:16:15.916Z,28.99
2022-08-25T11:17:21.747Z,28.99
2022-08-25T11:18:24.372Z,29.00
2022-08-25T11:19:36.826Z,29.01
2022-08-25T11:20:59.775Z,29.01
2022-08-25T11:22:19.332Z,29.01
2022-08-25T11:25:31.002Z,29.14
2022-08-25T11:26:37.224Z,29.02
2022-08-25T11:27:46.694Z,29.04
2022-08-25T11:28:55.823Z,29.03
2022-08-25T11:30:07.887Z,29.04
2022-08-25T11:31:10.182Z,29.03
2022-08-25T11:32:14.867Z,29.04
2022-08-25T11:33:17.384Z,29.03
2022-08-25T11:34:22.000Z,29.03
2022-08-25T11:36:39.589Z,29.17
2022-08-25T11:37:58.483Z,29.06
2022-08-25T11:39:16.467Z,29.05
2022-08-25T11:40:30.103Z,29.08
2022-08-25T11:42:04.216Z,29.08
2022-08-25T11:43:12.983Z,29.09
2022-08-25T11:44:28.224Z,29.10
2022-08-25T11:45:54.094Z,29.11
2022-08-25T11:47:03.849Z,29.10
2022-08-25T11:48:31.611Z,29.09
2022-08-25T11:50:01.061Z,29.10
2022-08-25T11:51:09.419Z,29.08
2022-08-25T11:52:35.260Z,29.09
2022-08-25T11:53:42.130Z,29.08
2022-08-25T11:54:44.701Z,29.06
2022-08-25T11:57:22.782Z,29.18
2022-08-25T11:58:31.242Z,29.06
2022-08-25T11:59:50.872Z,29.06
2022-08-25T12:00:56.144Z,29.06
2022-08-25T12:02:01.991Z,29.07
2022-08-25T12:04:44.860Z,29.17
2022-08-25T12:05:54.238Z,29.07
2022-08-25T12:07:07.336Z,29.07
2022-08-25T12:08:09.912Z,29.08
2022-08-25T12:09:18.133Z,29.10
2022-08-25T12:10:59.395Z,29.09
2022-08-25T12:12:08.215Z,29.10
2022-08-25T12:13:40.125Z,29.12
2022-08-25T12:14:43.612Z,29.11
2022-08-25T12:15:49.751Z,29.11
2022-08-25T12:16:57.698Z,29.12
2022-08-25T12:18:21.735Z,29.11
2022-08-25T12:19:29.251Z,29.11
2022-08-25T12:20:56.974Z,29.11
2022-08-25T12:22:07.142Z,29.12
2022-08-25T12:23:10.607Z,29.11
2022-08-25T12:24:14.189Z,29.11
2022-08-25T12:26:52.032Z,29.22
2022-08-25T12:28:04.288Z,29.11
2022-08-25T12:29:15.150Z,29.12
2022-08-25T12:30:22.259Z,29.15
2022-08-25T12:31:50.700Z,29.15
2022-08-25T12:32:59.796Z,29.15
2022-08-25T12:34:27.013Z,29.17
2022-08-25T12:35:41.124Z,29.17
2022-08-25T12:37:00.542Z,29.17
2022-08-25T12:38:09.228Z,29.18
2022-08-25T12:39:24.269Z,29.19
2022-08-25T12:42:06.281Z,29.32
2022-08-25T12:43:24.927Z,29.21
2022-08-25T12:44:44.538Z,29.22
2022-08-25T12:45:50.158Z,29.22
2022-08-25T12:48:30.623Z,29.33
2022-08-25T12:49:33.639Z,29.23
2022-08-25T12:50:45.066Z,29.24
2022-08-25T12:52:09.007Z,29.25
2022-08-25T12:53:39.279Z,29.28
2022-08-25T12:54:48.553Z,29.29
2022-08-25T12:56:00.336Z,29.29
2022-08-25T12:57:07.045Z,29.29
2022-08-25T12:58:09.322Z,29.27
2022-08-25T13:00:33.673Z,29.37
2022-08-25T13:01:56.545Z,29.27
2022-08-25T13:03:28.123Z,29.27
2022-08-25T13:04:41.624Z,29.28
2022-08-25T13:06:06.019Z,29.29
2022-08-25T13:07:16.129Z,29.29
2022-08-25T13:10:26.891Z,29.40
2022-08-25T13:13:02.926Z,29.42
2022-08-25T13:14:16.214Z,29.31
2022-08-25T13:15:44.559Z,29.32
2022-08-25T13:16:55.004Z,29.33
2022-08-25T13:18:12.927Z,29.33
2022-08-25T13:19:19.434Z,29.33
2022-08-25T13:20:25.972Z,29.32
2022-08-25T13:21:38.990Z,29.32
2022-08-25T13:22:43.965Z,29.32
2022-08-25T13:23:48.083Z,29.31
2022-08-25T13:24:52.175Z,29.33
2022-08-25T13:25:55.879Z,29.34
2022-08-25T13:27:02.935Z,29.36
2022-08-25T13:28:11.201Z,29.37
2022-08-25T13:29:14.643Z,29.38
2022-08-25T13:30:28.140Z,29.39
2022-08-25T13:31:31.932Z,29.42
2022-08-25T13:32:35.821Z,29.43
2022-08-25T13:33:38.386Z,29.44
2022-08-25T13:34:43.260Z,29.44
2022-08-25T13:35:50.247Z,29.46
2022-08-25T13:36:58.867Z,29.45
2022-08-25T13:39:52.756Z,29.56
2022-08-25T13:40:34.620Z,29.44
2022-08-25T13:41:37.558Z,29.43
2022-08-25T13:42:42.572Z,29.43
2022-08-25T13:43:45.012Z,29.44
2022-08-25T13:44:52.012Z,29.44
2022-08-25T13:45:52.335Z,29.44
2022-08-25T13:48:35.217Z,29.57
2022-08-25T13:49:38.527Z,29.46
2022-08-25T13:50:42.657Z,29.46
2022-08-25T13:51:50.907Z,29.47
2022-08-25T13:53:13.638Z,29.49
2022-08-25T13:54:30.949Z,29.50
2022-08-25T13:55:50.810Z,29.50
2022-08-25T13:56:52.285Z,29.51
2022-08-25T13:57:57.766Z,29.47
2022-08-25T13:59:02.185Z,29.47
2022-08-25T14:00:08.743Z,29.52
2022-08-25T14:01:45.073Z,29.52
2022-08-25T14:04:20.745Z,29.66
2022-08-25T14:07:08.352Z,29.67
2022-08-25T14:09:52.836Z,29.69
2022-08-25T14:11:14.888Z,29.58
2022-08-25T14:12:44.809Z,29.58
2022-08-25T14:13:47.154Z,29.58
2022-08-25T14:16:21.546Z,29.70
2022-08-25T14:17:39.225Z,29.57
2022-08-25T14:18:30.644Z,29.58
2022-08-25T14:19:32.965Z,29.59
2022-08-25T14:20:37.813Z,29.61
2022-08-25T14:21:41.050Z,29.62
2022-08-25T14:22:44.613Z,29.64
2022-08-25T14:23:46.993Z,29.65
2022-08-25T14:24:49.754Z,29.67
2022-08-25T14:27:08.721Z,29.80
2022-08-25T14:28:16.636Z,29.72
2022-08-25T14:29:19.041Z,29.75
2022-08-25T14:30:28.561Z,29.77
2022-08-25T14:31:29.507Z,29.78
2022-08-25T14:32:31.763Z,29.80
2022-08-25T14:33:40.153Z,29.82
2022-08-25T14:34:43.583Z,29.82
2022-08-25T14:35:48.077Z,29.80
2022-08-25T14:36:50.540Z,29.81
2022-08-25T14:37:52.827Z,29.79
2022-08-25T14:38:55.272Z,29.82
2022-08-25T14:39:58.047Z,29.81
2022-08-25T14:41:02.979Z,29.79
2022-08-25T14:42:06.771Z,29.79
2022-08-25T14:43:09.538Z,29.78
2022-08-25T14:44:12.535Z,29.78
2022-08-25T14:45:15.880Z,29.77
2022-08-25T14:46:20.646Z,29.76
2022-08-25T14:47:23.567Z,29.77
2022-08-25T14:48:29.407Z,29.74
2022-08-25T14:49:34.249Z,29.78
2022-08-25T14:50:37.617Z,29.79
2022-08-25T14:51:42.667Z,29.80
2022-08-25T14:52:45.771Z,29.79
2022-08-25T14:53:47.930Z,29.79
2022-08-25T14:54:50.190Z,29.80
2022-08-25T14:55:52.353Z,29.81
2022-08-25T14:56:54.757Z,29.82
2022-08-25T14:57:57.856Z,29.82
2022-08-25T14:59:00.398Z,29.82
2022-08-25T15:00:04.037Z,29.82
2022-08-25T15:01:07.534Z,29.82
2022-08-25T15:02:12.084Z,29.82
2022-08-25T15:03:16.643Z,29.83
2022-08-25T15:04:22.515Z,29.83
2022-08-25T15:05:25.222Z,29.83
2022-08-25T15:06:28.741Z,29.82
2022-08-25T15:07:41.238Z,29.83
2022-08-25T15:08:44.536Z,29.82
2022-08-25T15:09:47.597Z,29.82
2022-08-25T15:10:52.640Z,29.81
2022-08-25T15:11:55.346Z,29.80
2022-08-25T15:12:58.078Z,29.80